KLQK

Details ICAO KLQK
Name Pickens Co
Region United States
Timezone America/New_York (UTC-5.0)
Plans Departing 1
Arriving 6
Stats Elevation 1,013 ft / 309 m (AMSL)
Location 34.809972° -82.702881°
Runways 1
Magnetic Variation 6.447° W
Sunrise 2017-12-13 12:31:11 UTC / 2017-12-13 07:31:11 Local
Sunset 2017-12-13 22:21:53 UTC / 2017-12-13 17:21:53 Local
Advertisement - Login to hide

Runways

ID Width Length Bearing (true) Bearing (mag) Surface Threshold Offset Overrun Length
05 100 ft / 30 m 5,003 ft / 1,525 m 43.77° 50.22° Asphalt 0 ft / 0 m 0 ft / 0 m
23 100 ft / 30 m 5,003 ft / 1,525 m 223.77° 230.22° Asphalt 0 ft / 0 m 0 ft / 0 m

Map

Weather


0- 5 10 15 20 25 30 35+ Temperature / ° C

Clouds and Precipitation
Forecast for 2017-12-13 18:00 UTC. Updated 7 minutes ago

Ground ~20,000 ft ~40,000 ft Winds

METAR

KLQK 131515Z AUTO 33003KT 10SM CLR 02/M11 A3001 RMK AO2 T00161112

TAF

Not found

Frequencies

Recorded 120.00 MHz AWOS 3
Approach 118.80 MHz GREER APP/DEP
Unicom 122.80 MHz CTAF/UNICOM
Warning: Do not use this data for real-world aviation or navigation. No guarantee of current accuracy is given.